createdAt,value
2023-05-08T00:00:17.446Z,52.43
2023-05-08T00:02:44.298Z,52.58
2023-05-08T00:05:11.186Z,52.61
2023-05-08T00:07:38.303Z,52.42
2023-05-08T00:10:07.201Z,52.60
2023-05-08T00:12:33.978Z,52.65
2023-05-08T00:15:01.049Z,52.63
2023-05-08T00:17:27.886Z,52.60
2023-05-08T00:19:54.708Z,52.75
2023-05-08T00:22:23.665Z,52.77
2023-05-08T00:24:50.538Z,52.67
2023-05-08T00:27:17.304Z,52.76
2023-05-08T00:29:44.145Z,52.69
2023-05-08T00:32:11.313Z,52.67
2023-05-08T00:34:38.158Z,52.80
2023-05-08T00:37:04.990Z,52.76
2023-05-08T00:39:31.970Z,52.85
2023-05-08T00:41:58.771Z,52.58
2023-05-08T00:44:25.534Z,52.70
2023-05-08T00:46:52.433Z,52.92
2023-05-08T00:49:19.558Z,52.72
2023-05-08T00:51:48.046Z,52.76
2023-05-08T00:54:15.358Z,52.78
2023-05-08T00:56:42.880Z,52.78
2023-05-08T00:59:14.102Z,52.73
2023-05-08T01:01:42.224Z,52.86
2023-05-08T01:04:09.189Z,52.95
2023-05-08T01:06:39.009Z,52.75
2023-05-08T01:09:06.707Z,52.74
2023-05-08T01:11:48.167Z,52.84
2023-05-08T01:14:26.432Z,52.69
2023-05-08T01:17:11.238Z,52.99
2023-05-08T01:20:04.385Z,52.91
2023-05-08T01:23:01.375Z,52.94
2023-05-08T01:26:19.822Z,53.38
2023-05-08T01:29:01.275Z,53.17
2023-05-08T01:31:35.775Z,53.11
2023-05-08T01:34:08.926Z,53.03
2023-05-08T01:36:57.299Z,52.88
2023-05-08T01:39:37.666Z,53.20
2023-05-08T01:42:28.737Z,53.25
2023-05-08T01:45:01.643Z,53.06
2023-05-08T01:47:33.574Z,53.04
2023-05-08T01:50:18.513Z,52.92
2023-05-08T01:53:05.497Z,53.14
2023-05-08T01:55:37.529Z,53.25
2023-05-08T01:58:11.041Z,53.03
2023-05-08T02:00:40.882Z,53.13
2023-05-08T02:03:09.604Z,53.14
2023-05-08T02:05:38.438Z,53.12
2023-05-08T02:08:08.456Z,53.19
2023-05-08T02:10:37.256Z,53.20
2023-05-08T02:13:05.262Z,53.13
2023-05-08T02:15:36.517Z,53.17
2023-05-08T02:18:07.592Z,53.16
2023-05-08T02:20:34.589Z,53.15
2023-05-08T02:23:02.775Z,53.21
2023-05-08T02:25:31.180Z,53.41
2023-05-08T02:27:59.108Z,53.47
2023-05-08T02:30:27.131Z,53.15
2023-05-08T02:32:57.564Z,53.22
2023-05-08T02:35:28.239Z,53.11
2023-05-08T02:37:57.250Z,53.38
2023-05-08T02:40:27.999Z,53.41
2023-05-08T02:42:55.633Z,53.42
2023-05-08T02:45:27.192Z,53.15
2023-05-08T02:48:57.331Z,53.68
2023-05-08T02:51:38.302Z,53.48
2023-05-08T02:54:22.929Z,53.65
2023-05-08T02:57:09.176Z,54.33
2023-05-08T02:59:39.258Z,53.90
2023-05-08T03:02:25.611Z,53.95
2023-05-08T03:04:59.309Z,53.80
2023-05-08T03:07:28.047Z,53.94
2023-05-08T03:10:06.942Z,53.71
2023-05-08T03:12:42.169Z,53.92
2023-05-08T03:15:36.744Z,54.00
2023-05-08T03:18:10.462Z,54.12
2023-05-08T03:20:42.934Z,53.95
2023-05-08T03:23:12.821Z,54.02
2023-05-08T03:25:42.431Z,54.12
2023-05-08T03:28:11.295Z,54.06
2023-05-08T03:30:40.660Z,53.94
2023-05-08T03:33:08.783Z,53.93
2023-05-08T03:35:37.475Z,53.99
2023-05-08T03:38:08.384Z,53.70
2023-05-08T03:40:36.842Z,53.90
2023-05-08T03:43:07.836Z,54.04
2023-05-08T03:45:40.250Z,53.83
2023-05-08T03:48:09.051Z,54.11
2023-05-08T03:50:37.807Z,54.00
2023-05-08T03:53:05.269Z,54.06
2023-05-08T03:55:32.289Z,53.79
2023-05-08T03:58:40.270Z,54.21
2023-05-08T04:01:28.960Z,54.32
2023-05-08T04:04:16.816Z,54.42
2023-05-08T04:06:51.209Z,54.31
2023-05-08T04:09:27.463Z,54.42
2023-05-08T04:12:05.705Z,54.39
2023-05-08T04:14:39.207Z,54.35
2023-05-08T04:17:09.945Z,54.37
2023-05-08T04:19:45.094Z,54.46
2023-05-08T04:22:12.858Z,54.52
2023-05-08T04:24:44.564Z,54.34
2023-05-08T04:27:12.550Z,54.78
2023-05-08T04:29:39.735Z,54.54
2023-05-08T04:32:07.756Z,54.68
2023-05-08T04:34:35.659Z,54.46
2023-05-08T04:37:02.684Z,54.61
2023-05-08T04:39:29.483Z,54.82
2023-05-08T04:42:02.460Z,54.48
2023-05-08T04:44:29.663Z,54.61
2023-05-08T04:46:56.479Z,54.60
2023-05-08T04:49:23.354Z,54.63
2023-05-08T04:51:50.163Z,54.58
2023-05-08T04:54:16.938Z,54.73
2023-05-08T04:56:43.740Z,54.65
2023-05-08T04:59:11.557Z,54.76
2023-05-08T05:01:38.412Z,54.78
2023-05-08T05:04:05.584Z,54.87
2023-05-08T05:06:33.568Z,54.86
2023-05-08T05:09:00.354Z,54.60
2023-05-08T05:11:27.395Z,54.74
2023-05-08T05:13:54.144Z,54.52
2023-05-08T05:16:21.034Z,54.81
2023-05-08T05:18:47.853Z,54.91
2023-05-08T05:21:14.630Z,54.91
2023-05-08T05:23:41.482Z,54.77
2023-05-08T05:26:08.387Z,54.93
2023-05-08T05:28:35.170Z,54.89
2023-05-08T05:31:02.112Z,54.86
2023-05-08T05:33:29.033Z,54.74
2023-05-08T05:35:55.811Z,54.87
2023-05-08T05:38:22.563Z,54.59
2023-05-08T05:40:49.590Z,54.73
2023-05-08T05:43:16.418Z,54.71
2023-05-08T05:45:43.212Z,54.64
2023-05-08T05:48:10.199Z,54.68
2023-05-08T05:50:37.921Z,54.48
2023-05-08T05:53:04.733Z,54.58
2023-05-08T05:55:31.873Z,54.60
2023-05-08T05:57:58.677Z,54.59
2023-05-08T06:00:25.507Z,55.00
2023-05-08T06:02:52.470Z,54.80
2023-05-08T06:05:19.632Z,54.67
2023-05-08T06:07:46.449Z,54.59
2023-05-08T06:10:13.322Z,54.73
2023-05-08T06:12:40.477Z,54.75
2023-05-08T06:15:08.084Z,54.47
2023-05-08T06:17:34.922Z,54.36
2023-05-08T06:20:01.722Z,54.23
2023-05-08T06:22:29.328Z,54.23
2023-05-08T06:24:57.242Z,54.06
2023-05-08T06:27:24.093Z,54.15
2023-05-08T06:29:53.132Z,54.31
2023-05-08T06:32:21.175Z,54.09
2023-05-08T06:34:48.630Z,53.68
2023-05-08T06:37:15.413Z,53.81
2023-05-08T06:39:42.368Z,53.97
2023-05-08T06:42:09.382Z,54.14
2023-05-08T06:44:36.201Z,54.13
2023-05-08T06:47:03.190Z,53.89
2023-05-08T06:49:30.026Z,53.51
2023-05-08T06:51:58.119Z,53.54
2023-05-08T06:54:25.156Z,53.56
2023-05-08T06:56:54.105Z,53.53
2023-05-08T06:59:23.061Z,53.66
2023-05-08T07:01:50.606Z,53.77
2023-05-08T07:04:17.463Z,53.72
2023-05-08T07:06:44.344Z,53.48
2023-05-08T07:09:14.049Z,53.18
2023-05-08T07:11:40.865Z,52.98
2023-05-08T07:14:07.670Z,52.37
2023-05-08T07:16:34.911Z,52.24
2023-05-08T07:19:01.840Z,51.60
2023-05-08T07:21:29.579Z,51.86
2023-05-08T07:23:56.610Z,51.53
2023-05-08T07:26:23.454Z,51.53
2023-05-08T07:28:50.908Z,50.99
2023-05-08T07:31:17.785Z,50.87
2023-05-08T07:33:44.628Z,50.96
2023-05-08T07:36:11.795Z,50.63
2023-05-08T07:38:38.581Z,50.85
2023-05-08T07:41:05.921Z,51.15
2023-05-08T07:43:32.816Z,51.00
2023-05-08T07:45:59.612Z,50.95
2023-05-08T07:48:26.704Z,51.04
2023-05-08T07:50:53.472Z,51.19
2023-05-08T07:53:20.278Z,51.01
2023-05-08T07:55:47.059Z,51.08
2023-05-08T07:58:14.449Z,51.28
2023-05-08T08:00:41.220Z,51.32
2023-05-08T08:03:08.102Z,51.41
2023-05-08T08:05:35.010Z,51.24
2023-05-08T08:08:01.865Z,51.36
2023-05-08T08:10:28.866Z,51.18
2023-05-08T08:12:55.684Z,50.92
2023-05-08T08:15:22.483Z,50.69
2023-05-08T08:17:49.342Z,50.59
2023-05-08T08:20:16.191Z,50.42
2023-05-08T08:22:42.998Z,50.51
2023-05-08T08:25:10.148Z,50.35
2023-05-08T08:27:37.129Z,50.71
2023-05-08T08:30:15.820Z,50.87
2023-05-08T08:32:44.493Z,50.70
2023-05-08T08:35:12.032Z,50.80
2023-05-08T08:37:39.086Z,50.39
2023-05-08T08:40:07.497Z,50.37
2023-05-08T08:42:34.716Z,50.49
2023-05-08T08:45:03.458Z,49.99
2023-05-08T08:47:41.147Z,49.80
2023-05-08T08:50:11.983Z,49.64
2023-05-08T08:52:49.004Z,49.61
2023-05-08T08:55:18.437Z,49.61
2023-05-08T08:58:18.019Z,49.74
2023-05-08T09:00:45.330Z,49.78
2023-05-08T09:03:12.435Z,49.86
2023-05-08T09:05:40.032Z,49.28
2023-05-08T09:08:09.799Z,48.91
2023-05-08T09:10:37.140Z,48.84
2023-05-08T09:13:05.242Z,48.94
2023-05-08T09:15:33.375Z,49.03
2023-05-08T09:18:02.695Z,49.31
2023-05-08T09:20:30.435Z,48.75
2023-05-08T09:22:58.011Z,48.71
2023-05-08T09:25:24.938Z,48.50
2023-05-08T09:27:51.697Z,48.42
2023-05-08T09:30:18.534Z,48.09
2023-05-08T09:32:45.750Z,48.04
2023-05-08T09:35:13.875Z,47.82
2023-05-08T09:37:43.341Z,48.05
2023-05-08T09:40:28.315Z,47.93
2023-05-08T09:42:55.150Z,47.63
2023-05-08T09:45:32.725Z,47.02
2023-05-08T09:47:59.650Z,46.27
2023-05-08T09:50:27.706Z,46.01
2023-05-08T09:52:54.757Z,46.09
2023-05-08T09:55:21.600Z,46.04
2023-05-08T09:58:00.008Z,46.66
2023-05-08T10:00:28.670Z,45.87
2023-05-08T10:03:03.249Z,45.95
2023-05-08T10:05:32.380Z,45.39
2023-05-08T10:08:18.429Z,45.37
2023-05-08T10:10:45.254Z,45.67
2023-05-08T10:13:12.091Z,45.02
2023-05-08T10:15:42.514Z,44.97
2023-05-08T10:18:11.847Z,44.88
2023-05-08T10:20:46.539Z,44.33
2023-05-08T10:23:17.503Z,44.13
2023-05-08T10:25:49.525Z,44.26
2023-05-08T10:28:28.006Z,43.79
2023-05-08T10:31:00.847Z,44.20
2023-05-08T10:33:33.725Z,43.63
2023-05-08T10:36:01.293Z,43.88
2023-05-08T10:38:28.393Z,43.32
2023-05-08T10:40:58.220Z,43.67
2023-05-08T10:43:25.793Z,43.35
2023-05-08T10:45:55.621Z,43.57
2023-05-08T10:48:53.347Z,43.50
2023-05-08T10:51:47.411Z,44.06
2023-05-08T10:54:28.066Z,43.95
2023-05-08T10:57:12.095Z,43.65
2023-05-08T10:59:39.147Z,43.29
2023-05-08T11:02:08.189Z,43.34
2023-05-08T11:04:38.127Z,43.61
2023-05-08T11:07:05.266Z,43.34
2023-05-08T11:09:41.143Z,43.13
2023-05-08T11:12:29.493Z,43.03
2023-05-08T11:15:07.264Z,43.65
2023-05-08T11:17:34.457Z,43.23
2023-05-08T11:20:07.053Z,43.17
2023-05-08T11:22:35.274Z,43.54
2023-05-08T11:25:09.610Z,43.26
2023-05-08T11:27:38.699Z,45.46
2023-05-08T11:30:38.176Z,44.44
2023-05-08T11:33:05.135Z,43.45
2023-05-08T11:36:23.000Z,44.00
2023-05-08T11:39:12.721Z,43.46
2023-05-08T11:41:39.602Z,43.04
2023-05-08T11:44:17.181Z,43.15
2023-05-08T11:46:51.303Z,43.22
2023-05-08T11:49:26.064Z,42.82
2023-05-08T11:51:58.375Z,42.61
2023-05-08T11:54:29.830Z,42.71
2023-05-08T11:56:57.429Z,42.30
2023-05-08T11:59:24.280Z,42.26
2023-05-08T12:04:21.706Z,42.11
2023-05-08T12:06:51.227Z,42.20
2023-05-08T12:09:22.111Z,41.74
2023-05-08T12:11:57.928Z,41.48
2023-05-08T12:14:27.288Z,41.51
2023-05-08T12:16:54.150Z,41.26
2023-05-08T12:19:21.085Z,41.18
2023-05-08T12:21:48.992Z,41.13
2023-05-08T12:24:23.240Z,40.57
2023-05-08T12:26:54.296Z,40.21
2023-05-08T12:29:21.205Z,40.30
2023-05-08T12:31:48.855Z,40.03
2023-05-08T12:34:16.485Z,39.77
2023-05-08T12:36:43.267Z,39.67
2023-05-08T12:39:13.478Z,39.74
2023-05-08T12:41:51.958Z,40.01
2023-05-08T12:44:24.360Z,39.90
2023-05-08T12:46:56.664Z,40.05
2023-05-08T12:49:31.268Z,39.91
2023-05-08T12:52:17.955Z,40.23
2023-05-08T12:54:48.889Z,39.93
2023-05-08T12:57:18.068Z,40.00
2023-05-08T12:59:46.288Z,39.26
2023-05-08T13:02:23.678Z,39.50
2023-05-08T13:04:55.853Z,38.88
2023-05-08T13:07:22.834Z,38.02
2023-05-08T13:10:00.914Z,38.01
2023-05-08T13:12:27.692Z,38.00
2023-05-08T13:14:54.677Z,38.07
2023-05-08T13:17:21.450Z,38.26
2023-05-08T13:19:48.263Z,38.20
2023-05-08T13:22:15.113Z,37.97
2023-05-08T13:24:41.901Z,37.76
2023-05-08T13:27:09.091Z,38.02
2023-05-08T13:29:42.481Z,37.63
2023-05-08T13:32:09.608Z,37.73
2023-05-08T13:34:41.488Z,37.69
2023-05-08T13:37:14.369Z,37.57
2023-05-08T13:39:44.249Z,37.43
2023-05-08T13:42:11.063Z,36.99
2023-05-08T13:44:37.840Z,37.04
2023-05-08T13:47:14.213Z,37.12
2023-05-08T13:49:41.124Z,36.92
2023-05-08T13:52:11.302Z,36.99
2023-05-08T13:54:53.330Z,37.08
2023-05-08T13:57:30.756Z,37.43
2023-05-08T13:59:57.906Z,37.34
2023-05-08T14:02:25.015Z,37.43
2023-05-08T14:04:54.566Z,36.99
2023-05-08T14:07:27.148Z,36.66
2023-05-08T14:09:56.405Z,36.72
2023-05-08T14:12:23.248Z,36.53
2023-05-08T14:14:50.544Z,36.79
2023-05-08T14:17:17.388Z,37.14
2023-05-08T14:19:44.355Z,37.16
2023-05-08T14:22:11.430Z,37.01
2023-05-08T14:24:38.484Z,37.02
2023-05-08T14:27:06.094Z,36.70
2023-05-08T14:29:34.236Z,36.46
2023-05-08T14:32:01.640Z,36.44
2023-05-08T14:34:28.459Z,36.33
2023-05-08T14:36:55.258Z,36.15
2023-05-08T14:39:39.752Z,35.87
2023-05-08T14:42:22.362Z,36.47
2023-05-08T14:44:50.127Z,36.33
2023-05-08T14:47:17.407Z,35.90
2023-05-08T14:49:44.215Z,36.25
2023-05-08T14:52:12.926Z,36.45
2023-05-08T14:54:39.917Z,36.48
2023-05-08T14:57:26.596Z,36.29
2023-05-08T15:00:11.872Z,36.42
2023-05-08T15:05:33.348Z,36.62
2023-05-08T15:22:39.438Z,39.32
2023-05-08T15:25:06.976Z,38.53
2023-05-08T15:27:47.980Z,38.37
2023-05-08T15:30:15.151Z,37.92
2023-05-08T15:32:46.829Z,37.70
2023-05-08T15:35:18.756Z,37.95
2023-05-08T15:37:45.516Z,37.94
2023-05-08T15:40:12.722Z,37.69
2023-05-08T15:42:39.505Z,37.30
2023-05-08T15:45:06.935Z,37.17
2023-05-08T15:47:33.780Z,37.20
2023-05-08T15:50:00.686Z,37.27
2023-05-08T15:52:27.436Z,36.91
2023-05-08T15:54:54.191Z,36.78
2023-05-08T15:57:20.999Z,36.87
2023-05-08T15:59:47.828Z,36.79
2023-05-08T16:02:14.707Z,36.82
2023-05-08T16:04:41.673Z,36.59
2023-05-08T16:07:08.599Z,36.79
2023-05-08T16:09:35.362Z,36.83
2023-05-08T16:12:02.153Z,36.56
2023-05-08T16:14:28.914Z,36.79
2023-05-08T16:16:55.693Z,36.64
2023-05-08T16:19:22.569Z,36.43
2023-05-08T16:21:49.466Z,36.35
2023-05-08T16:24:16.310Z,36.36
2023-05-08T16:26:43.139Z,36.69
2023-05-08T16:29:12.115Z,36.71
2023-05-08T16:31:38.945Z,36.66
2023-05-08T16:34:05.812Z,36.92
2023-05-08T16:36:32.608Z,36.56
2023-05-08T16:38:59.392Z,37.01
2023-05-08T16:41:27.837Z,36.91
2023-05-08T16:43:54.784Z,36.82
2023-05-08T16:46:29.953Z,36.80
2023-05-08T16:48:57.518Z,36.56
2023-05-08T16:51:24.310Z,36.56
2023-05-08T16:53:51.099Z,36.82
2023-05-08T16:56:19.265Z,36.98
2023-05-08T16:58:46.105Z,36.98
2023-05-08T17:01:14.008Z,37.08
2023-05-08T17:03:40.843Z,37.06
2023-05-08T17:06:08.278Z,36.79
2023-05-08T17:08:35.319Z,36.97
2023-05-08T17:11:02.058Z,37.02
2023-05-08T17:13:29.911Z,36.99
2023-05-08T17:15:57.665Z,36.99
2023-05-08T17:18:24.452Z,37.13
2023-05-08T17:20:51.294Z,36.75
2023-05-08T17:23:18.308Z,36.78
2023-05-08T17:25:45.197Z,36.76
2023-05-08T17:28:12.043Z,36.81
2023-05-08T17:30:38.870Z,36.62
2023-05-08T17:33:07.373Z,36.74
2023-05-08T17:35:34.251Z,36.71
2023-05-08T17:38:01.253Z,36.66
2023-05-08T17:40:28.753Z,36.82
2023-05-08T17:42:55.581Z,36.82
2023-05-08T17:45:22.386Z,36.86
2023-05-08T17:47:49.413Z,36.47
2023-05-08T17:50:16.283Z,36.73
2023-05-08T17:52:43.166Z,36.73
2023-05-08T17:55:10.564Z,36.42
2023-05-08T17:57:37.347Z,36.77
2023-05-08T18:00:06.095Z,36.45
2023-05-08T18:02:32.983Z,36.48
2023-05-08T18:05:00.816Z,36.43
2023-05-08T18:07:27.626Z,36.60
2023-05-08T18:09:54.383Z,36.70
2023-05-08T18:12:21.177Z,36.54
2023-05-08T18:14:48.519Z,36.68
2023-05-08T18:17:22.641Z,36.46
2023-05-08T18:19:49.576Z,36.72
2023-05-08T18:22:16.440Z,36.64
2023-05-08T18:24:45.438Z,36.70
2023-05-08T18:27:12.222Z,36.58
2023-05-08T18:29:38.969Z,36.40
2023-05-08T18:32:06.591Z,36.33
2023-05-08T18:34:36.607Z,36.68
2023-05-08T18:37:03.678Z,36.82
2023-05-08T18:39:31.274Z,36.91
2023-05-08T18:41:58.130Z,36.87
2023-05-08T18:44:24.994Z,36.83
2023-05-08T18:46:51.777Z,36.94
2023-05-08T18:49:18.575Z,36.71
2023-05-08T18:51:50.755Z,36.96
2023-05-08T18:54:17.734Z,36.83
2023-05-08T18:56:44.568Z,37.15
2023-05-08T18:59:14.117Z,37.04
2023-05-08T19:01:40.919Z,37.12
2023-05-08T19:04:07.928Z,37.02
2023-05-08T19:06:34.730Z,37.33
2023-05-08T19:09:01.474Z,37.31
2023-05-08T19:11:28.291Z,37.16
2023-05-08T19:13:56.265Z,36.94
2023-05-08T19:16:23.508Z,37.27
2023-05-08T19:18:51.343Z,37.38
2023-05-08T19:21:18.355Z,37.20
2023-05-08T19:23:45.168Z,37.33
2023-05-08T19:26:11.990Z,37.21
2023-05-08T19:28:38.825Z,37.00
2023-05-08T19:31:05.631Z,37.39
2023-05-08T19:33:32.449Z,37.00
2023-05-08T19:35:59.788Z,37.34
2023-05-08T19:38:26.667Z,37.17
2023-05-08T19:40:57.494Z,37.56
2023-05-08T19:43:26.251Z,37.32
2023-05-08T19:45:53.345Z,37.53
2023-05-08T19:48:20.405Z,37.38
2023-05-08T19:50:47.413Z,37.20
2023-05-08T19:53:14.227Z,37.35
2023-05-08T19:55:42.578Z,37.12
2023-05-08T19:58:18.899Z,37.19
2023-05-08T20:00:50.887Z,37.54
2023-05-08T20:03:18.123Z,37.37
2023-05-08T20:05:45.048Z,37.10
2023-05-08T20:08:11.996Z,37.47
2023-05-08T20:10:38.765Z,37.42
2023-05-08T20:13:05.630Z,37.23
2023-05-08T20:15:32.554Z,37.03
2023-05-08T20:17:59.657Z,37.21
2023-05-08T20:20:27.191Z,37.35
2023-05-08T20:22:53.965Z,37.31
2023-05-08T20:25:20.795Z,37.13
2023-05-08T20:27:47.621Z,37.16
2023-05-08T20:30:14.734Z,37.16
2023-05-08T20:32:41.748Z,37.42
2023-05-08T20:35:09.117Z,37.46
2023-05-08T20:37:42.604Z,37.57
2023-05-08T20:40:13.138Z,37.25
2023-05-08T20:42:43.221Z,37.53
2023-05-08T20:45:10.865Z,37.09
2023-05-08T20:47:37.818Z,37.30
2023-05-08T20:50:07.973Z,37.50
2023-05-08T20:52:35.939Z,37.72
2023-05-08T20:55:05.421Z,37.37
2023-05-08T20:57:32.185Z,37.62
2023-05-08T20:59:58.957Z,37.41
2023-05-08T21:02:25.833Z,37.42
2023-05-08T21:04:52.841Z,37.49
2023-05-08T21:07:22.741Z,37.37
2023-05-08T21:09:49.510Z,37.61
2023-05-08T21:12:19.405Z,37.39
2023-05-08T21:14:46.482Z,37.35
2023-05-08T21:17:13.240Z,37.34
2023-05-08T21:19:40.054Z,37.50
2023-05-08T21:22:09.178Z,37.49
2023-05-08T21:24:42.559Z,37.40
2023-05-08T21:27:09.370Z,37.59
2023-05-08T21:29:36.357Z,37.35
2023-05-08T21:32:03.169Z,37.50
2023-05-08T21:34:30.060Z,37.28
2023-05-08T21:36:56.926Z,37.41
2023-05-08T21:39:23.721Z,37.30
2023-05-08T21:41:50.495Z,37.48
2023-05-08T21:44:17.328Z,37.45
2023-05-08T21:46:44.160Z,37.08
2023-05-08T21:49:11.190Z,37.32
2023-05-08T21:51:40.604Z,37.15
2023-05-08T21:54:08.632Z,37.50
2023-05-08T21:56:35.463Z,37.04
2023-05-08T21:59:02.226Z,37.28
2023-05-08T22:01:29.115Z,37.23
2023-05-08T22:03:57.431Z,37.36
2023-05-08T22:06:24.286Z,37.16
2023-05-08T22:08:51.056Z,37.24
2023-05-08T22:11:17.824Z,37.17
2023-05-08T22:13:44.607Z,37.02
2023-05-08T22:16:11.413Z,36.99
2023-05-08T22:18:38.216Z,37.04
2023-05-08T22:21:05.000Z,36.94
2023-05-08T22:23:34.591Z,37.11
2023-05-08T22:26:01.511Z,36.75
2023-05-08T22:28:28.396Z,37.04
2023-05-08T22:30:55.183Z,37.19
2023-05-08T22:33:22.082Z,36.98
2023-05-08T22:35:48.837Z,37.19
2023-05-08T22:38:15.785Z,37.02
2023-05-08T22:40:42.639Z,36.99
2023-05-08T22:43:09.753Z,37.18
2023-05-08T22:45:37.086Z,36.89
2023-05-08T22:48:04.322Z,37.09
2023-05-08T22:50:31.236Z,37.11
2023-05-08T22:52:58.047Z,37.29
2023-05-08T22:55:24.865Z,36.88
2023-05-08T22:57:51.688Z,37.21
2023-05-08T23:00:18.778Z,37.20
2023-05-08T23:02:45.737Z,37.36
2023-05-08T23:05:12.959Z,37.36
2023-05-08T23:07:40.635Z,37.32
2023-05-08T23:10:07.931Z,37.34
2023-05-08T23:12:34.766Z,37.29
2023-05-08T23:15:01.531Z,37.37
2023-05-08T23:17:28.360Z,37.50
2023-05-08T23:19:55.162Z,37.61
2023-05-08T23:22:21.944Z,37.40
2023-05-08T23:24:49.072Z,37.49
2023-05-08T23:27:15.909Z,37.57
2023-05-08T23:29:42.654Z,37.58
2023-05-08T23:32:09.387Z,37.39
2023-05-08T23:34:36.153Z,37.65
2023-05-08T23:37:03.105Z,37.50
2023-05-08T23:39:29.905Z,37.52
2023-05-08T23:41:56.667Z,37.75
2023-05-08T23:44:23.438Z,37.74
2023-05-08T23:46:50.253Z,37.62
2023-05-08T23:49:17.073Z,37.55
2023-05-08T23:51:43.862Z,37.71
2023-05-08T23:54:10.705Z,37.96
2023-05-08T23:56:37.459Z,37.91
2023-05-08T23:59:04.270Z,37.86
